sensor_id;sensor_type;location;lat;lon;timestamp;temperature;humidity
15013;DHT22;7603;49.432;11.418;2022-12-18T00:01:51;-11.20;99.90
15013;DHT22;7603;49.432;11.418;2022-12-18T00:04:22;-11.20;99.90
15013;DHT22;7603;49.432;11.418;2022-12-18T00:06:48;-11.30;99.90
15013;DHT22;7603;49.432;11.418;2022-12-18T00:09:14;-11.30;99.90
15013;DHT22;7603;49.432;11.418;2022-12-18T00:11:40;-11.30;99.90
15013;DHT22;7603;49.432;11.418;2022-12-18T00:14:06;-11.40;99.90
15013;DHT22;7603;49.432;11.418;2022-12-18T00:16:31;-11.40;99.90
15013;DHT22;7603;49.432;11.418;2022-12-18T00:19:00;-11.40;99.90
15013;DHT22;7603;49.432;11.418;2022-12-18T00:21:28;-11.50;99.90
15013;DHT22;7603;49.432;11.418;2022-12-18T00:23:54;-11.50;99.90
15013;DHT22;7603;49.432;11.418;2022-12-18T00:26:23;-11.50;99.90
15013;DHT22;7603;49.432;11.418;2022-12-18T00:28:50;-11.60;99.90
15013;DHT22;7603;49.432;11.418;2022-12-18T00:31:19;-11.60;99.90
15013;DHT22;7603;49.432;11.418;2022-12-18T00:33:45;-11.60;99.90
15013;DHT22;7603;49.432;11.418;2022-12-18T00:36:13;-11.70;99.90
15013;DHT22;7603;49.432;11.418;2022-12-18T00:38:40;-11.70;99.90
15013;DHT22;7603;49.432;11.418;2022-12-18T00:41:07;-11.70;99.90
15013;DHT22;7603;49.432;11.418;2022-12-18T00:43:33;-11.70;99.90
15013;DHT22;7603;49.432;11.418;2022-12-18T00:45:58;-11.70;99.90
15013;DHT22;7603;49.432;11.418;2022-12-18T00:48:24;-11.70;99.90
15013;DHT22;7603;49.432;11.418;2022-12-18T00:50:50;-11.70;99.90
15013;DHT22;7603;49.432;11.418;2022-12-18T00:53:16;-11.70;99.90
15013;DHT22;7603;49.432;11.418;2022-12-18T00:55:42;-11.70;99.90
15013;DHT22;7603;49.432;11.418;2022-12-18T00:58:09;-11.70;99.90
15013;DHT22;7603;49.432;11.418;2022-12-18T01:00:35;-11.70;99.90
15013;DHT22;7603;49.432;11.418;2022-12-18T01:03:02;-11.70;99.90
15013;DHT22;7603;49.432;11.418;2022-12-18T01:05:27;-11.60;99.90
15013;DHT22;7603;49.432;11.418;2022-12-18T01:07:54;-11.60;99.90
15013;DHT22;7603;49.432;11.418;2022-12-18T01:10:20;-11.50;99.90
15013;DHT22;7603;49.432;11.418;2022-12-18T01:12:46;-11.40;99.90
15013;DHT22;7603;49.432;11.418;2022-12-18T01:15:12;-11.30;99.90
15013;DHT22;7603;49.432;11.418;2022-12-18T01:17:38;-11.20;99.90
15013;DHT22;7603;49.432;11.418;2022-12-18T01:20:05;-11.10;99.90
15013;DHT22;7603;49.432;11.418;2022-12-18T01:22:31;-11.10;99.90
15013;DHT22;7603;49.432;11.418;2022-12-18T01:24:58;-11.00;99.90
15013;DHT22;7603;49.432;11.418;2022-12-18T01:27:24;-11.00;99.90
15013;DHT22;7603;49.432;11.418;2022-12-18T01:29:49;-11.00;99.90
15013;DHT22;7603;49.432;11.418;2022-12-18T01:32:15;-11.00;99.90
15013;DHT22;7603;49.432;11.418;2022-12-18T01:34:41;-11.00;99.90
15013;DHT22;7603;49.432;11.418;2022-12-18T01:37:06;-11.00;99.90
15013;DHT22;7603;49.432;11.418;2022-12-18T01:39:32;-11.00;99.90
15013;DHT22;7603;49.432;11.418;2022-12-18T01:41:59;-11.10;99.90
15013;DHT22;7603;49.432;11.418;2022-12-18T01:45:08;-11.10;99.90
15013;DHT22;7603;49.432;11.418;2022-12-18T01:47:48;-11.00;99.90
15013;DHT22;7603;49.432;11.418;2022-12-18T01:50:20;-11.10;99.90
15013;DHT22;7603;49.432;11.418;2022-12-18T01:52:52;-11.10;99.90
15013;DHT22;7603;49.432;11.418;2022-12-18T01:55:20;-11.20;99.90
15013;DHT22;7603;49.432;11.418;2022-12-18T01:57:48;-11.20;99.90
15013;DHT22;7603;49.432;11.418;2022-12-18T02:00:17;-11.30;99.90
15013;DHT22;7603;49.432;11.418;2022-12-18T02:02:45;-11.30;99.90
15013;DHT22;7603;49.432;11.418;2022-12-18T02:05:14;-11.40;99.90
15013;DHT22;7603;49.432;11.418;2022-12-18T02:11:05;-11.50;99.90
15013;DHT22;7603;49.432;11.418;2022-12-18T02:16:23;-11.60;99.90
15013;DHT22;7603;49.432;11.418;2022-12-18T02:18:57;-11.70;99.90
15013;DHT22;7603;49.432;11.418;2022-12-18T02:21:46;-11.70;99.90
15013;DHT22;7603;49.432;11.418;2022-12-18T02:24:53;-11.80;99.90
15013;DHT22;7603;49.432;11.418;2022-12-18T02:27:13;-11.80;99.90
15013;DHT22;7603;49.432;11.418;2022-12-18T02:29:44;-11.90;99.90
15013;DHT22;7603;49.432;11.418;2022-12-18T02:32:20;-12.00;99.90
15013;DHT22;7603;49.432;11.418;2022-12-18T02:34:48;-12.10;99.90
15013;DHT22;7603;49.432;11.418;2022-12-18T02:37:16;-12.20;99.90
15013;DHT22;7603;49.432;11.418;2022-12-18T02:39:44;-12.20;99.90
15013;DHT22;7603;49.432;11.418;2022-12-18T02:42:12;-12.30;99.90
15013;DHT22;7603;49.432;11.418;2022-12-18T02:44:49;-12.30;99.90
15013;DHT22;7603;49.432;11.418;2022-12-18T02:47:17;-12.40;99.90
15013;DHT22;7603;49.432;11.418;2022-12-18T02:57:58;-12.50;99.90
15013;DHT22;7603;49.432;11.418;2022-12-18T03:00:41;-12.50;99.90
15013;DHT22;7603;49.432;11.418;2022-12-18T03:05:45;-12.60;99.90
15013;DHT22;7603;49.432;11.418;2022-12-18T03:08:22;-12.60;99.90
15013;DHT22;7603;49.432;11.418;2022-12-18T03:16:12;-12.60;99.90
15013;DHT22;7603;49.432;11.418;2022-12-18T03:18:48;-12.60;99.90
15013;DHT22;7603;49.432;11.418;2022-12-18T03:21:19;-12.60;99.90
15013;DHT22;7603;49.432;11.418;2022-12-18T03:23:48;-12.60;99.90
15013;DHT22;7603;49.432;11.418;2022-12-18T03:26:18;-12.50;99.90
15013;DHT22;7603;49.432;11.418;2022-12-18T03:28:59;-12.40;99.90
15013;DHT22;7603;49.432;11.418;2022-12-18T03:31:26;-12.40;99.90
15013;DHT22;7603;49.432;11.418;2022-12-18T03:33:59;-12.30;99.90
15013;DHT22;7603;49.432;11.418;2022-12-18T03:36:26;-12.30;99.90
15013;DHT22;7603;49.432;11.418;2022-12-18T03:38:52;-12.30;99.90
15013;DHT22;7603;49.432;11.418;2022-12-18T03:41:33;-12.30;99.90
15013;DHT22;7603;49.432;11.418;2022-12-18T03:44:11;-12.30;99.90
15013;DHT22;7603;49.432;11.418;2022-12-18T03:49:41;-12.20;99.90
15013;DHT22;7603;49.432;11.418;2022-12-18T03:52:18;-12.10;99.90
15013;DHT22;7603;49.432;11.418;2022-12-18T03:54:45;-12.00;99.90
15013;DHT22;7603;49.432;11.418;2022-12-18T03:57:20;-12.00;99.90
15013;DHT22;7603;49.432;11.418;2022-12-18T03:59:49;-11.90;99.90
15013;DHT22;7603;49.432;11.418;2022-12-18T04:02:17;-11.80;99.90
15013;DHT22;7603;49.432;11.418;2022-12-18T04:04:43;-11.70;99.90
15013;DHT22;7603;49.432;11.418;2022-12-18T04:07:10;-11.60;99.90
15013;DHT22;7603;49.432;11.418;2022-12-18T04:09:38;-11.50;99.90
15013;DHT22;7603;49.432;11.418;2022-12-18T04:12:05;-11.40;99.90
15013;DHT22;7603;49.432;11.418;2022-12-18T04:14:31;-11.30;99.90
15013;DHT22;7603;49.432;11.418;2022-12-18T04:17:01;-11.20;99.90
15013;DHT22;7603;49.432;11.418;2022-12-18T04:19:27;-11.20;99.90
15013;DHT22;7603;49.432;11.418;2022-12-18T04:21:53;-11.10;99.90
15013;DHT22;7603;49.432;11.418;2022-12-18T04:24:19;-11.10;99.90
15013;DHT22;7603;49.432;11.418;2022-12-18T04:26:45;-11.00;99.90
15013;DHT22;7603;49.432;11.418;2022-12-18T04:29:11;-10.90;99.90
15013;DHT22;7603;49.432;11.418;2022-12-18T04:31:37;-10.90;99.90
15013;DHT22;7603;49.432;11.418;2022-12-18T04:34:03;-10.80;99.90
15013;DHT22;7603;49.432;11.418;2022-12-18T04:36:29;-10.80;99.90
15013;DHT22;7603;49.432;11.418;2022-12-18T04:38:55;-10.80;99.90
15013;DHT22;7603;49.432;11.418;2022-12-18T04:41:21;-10.80;99.90
15013;DHT22;7603;49.432;11.418;2022-12-18T04:43:46;-10.70;99.90
15013;DHT22;7603;49.432;11.418;2022-12-18T04:46:12;-10.80;99.90
15013;DHT22;7603;49.432;11.418;2022-12-18T04:48:38;-10.70;99.90
15013;DHT22;7603;49.432;11.418;2022-12-18T04:51:04;-10.70;99.90
15013;DHT22;7603;49.432;11.418;2022-12-18T04:53:30;-10.70;99.90
15013;DHT22;7603;49.432;11.418;2022-12-18T04:56:13;-10.60;99.90
15013;DHT22;7603;49.432;11.418;2022-12-18T04:58:40;-10.60;99.90
15013;DHT22;7603;49.432;11.418;2022-12-18T05:01:07;-10.60;99.90
15013;DHT22;7603;49.432;11.418;2022-12-18T05:03:33;-10.70;99.90
15013;DHT22;7603;49.432;11.418;2022-12-18T05:05:59;-10.70;99.90
15013;DHT22;7603;49.432;11.418;2022-12-18T05:08:25;-10.80;99.90
15013;DHT22;7603;49.432;11.418;2022-12-18T05:11:04;-10.90;99.90
15013;DHT22;7603;49.432;11.418;2022-12-18T05:13:30;-10.90;99.90
15013;DHT22;7603;49.432;11.418;2022-12-18T05:15:56;-11.00;99.90
15013;DHT22;7603;49.432;11.418;2022-12-18T05:18:23;-11.00;99.90
15013;DHT22;7603;49.432;11.418;2022-12-18T05:20:50;-11.10;99.90
15013;DHT22;7603;49.432;11.418;2022-12-18T05:23:16;-11.10;99.90
15013;DHT22;7603;49.432;11.418;2022-12-18T05:25:41;-11.10;99.90
15013;DHT22;7603;49.432;11.418;2022-12-18T05:28:07;-11.10;99.90
15013;DHT22;7603;49.432;11.418;2022-12-18T05:30:33;-11.00;99.90
15013;DHT22;7603;49.432;11.418;2022-12-18T05:32:59;-10.90;99.90
15013;DHT22;7603;49.432;11.418;2022-12-18T05:35:24;-10.70;99.90
15013;DHT22;7603;49.432;11.418;2022-12-18T05:37:50;-10.60;99.90
15013;DHT22;7603;49.432;11.418;2022-12-18T05:40:16;-10.40;99.90
15013;DHT22;7603;49.432;11.418;2022-12-18T05:42:41;-10.20;99.90
15013;DHT22;7603;49.432;11.418;2022-12-18T05:45:07;-10.10;99.90
15013;DHT22;7603;49.432;11.418;2022-12-18T05:47:33;-9.90;99.90
15013;DHT22;7603;49.432;11.418;2022-12-18T05:49:58;-9.70;99.90
15013;DHT22;7603;49.432;11.418;2022-12-18T05:52:24;-9.60;99.90
15013;DHT22;7603;49.432;11.418;2022-12-18T05:54:50;-9.40;99.90
15013;DHT22;7603;49.432;11.418;2022-12-18T05:57:15;-9.30;99.90
15013;DHT22;7603;49.432;11.418;2022-12-18T05:59:41;-9.10;99.90
15013;DHT22;7603;49.432;11.418;2022-12-18T06:02:07;-8.90;99.90
15013;DHT22;7603;49.432;11.418;2022-12-18T06:04:33;-8.70;99.90
15013;DHT22;7603;49.432;11.418;2022-12-18T06:06:59;-8.60;99.90
15013;DHT22;7603;49.432;11.418;2022-12-18T06:09:25;-8.50;99.90
15013;DHT22;7603;49.432;11.418;2022-12-18T06:11:52;-8.40;99.90
15013;DHT22;7603;49.432;11.418;2022-12-18T06:14:18;-8.30;99.90
15013;DHT22;7603;49.432;11.418;2022-12-18T06:16:43;-8.20;99.90
15013;DHT22;7603;49.432;11.418;2022-12-18T06:19:14;-8.00;99.90
15013;DHT22;7603;49.432;11.418;2022-12-18T06:21:41;-7.90;99.90
15013;DHT22;7603;49.432;11.418;2022-12-18T06:24:07;-7.90;99.90
15013;DHT22;7603;49.432;11.418;2022-12-18T06:26:33;-7.80;99.90
15013;DHT22;7603;49.432;11.418;2022-12-18T06:28:59;-7.70;99.90
15013;DHT22;7603;49.432;11.418;2022-12-18T06:31:25;-7.60;99.90
15013;DHT22;7603;49.432;11.418;2022-12-18T06:33:51;-7.50;99.90
15013;DHT22;7603;49.432;11.418;2022-12-18T06:36:17;-7.40;99.90
15013;DHT22;7603;49.432;11.418;2022-12-18T06:38:43;-7.30;99.90
15013;DHT22;7603;49.432;11.418;2022-12-18T06:41:11;-7.10;99.90
15013;DHT22;7603;49.432;11.418;2022-12-18T06:43:37;-7.10;99.90
15013;DHT22;7603;49.432;11.418;2022-12-18T06:46:04;-7.00;99.90
15013;DHT22;7603;49.432;11.418;2022-12-18T06:48:31;-6.90;99.90
15013;DHT22;7603;49.432;11.418;2022-12-18T06:50:57;-6.80;99.90
15013;DHT22;7603;49.432;11.418;2022-12-18T06:53:23;-6.60;99.90
15013;DHT22;7603;49.432;11.418;2022-12-18T06:55:49;-6.50;99.90
15013;DHT22;7603;49.432;11.418;2022-12-18T06:58:14;-6.40;99.90
15013;DHT22;7603;49.432;11.418;2022-12-18T07:00:40;-6.30;99.90
15013;DHT22;7603;49.432;11.418;2022-12-18T07:03:06;-6.30;99.90
15013;DHT22;7603;49.432;11.418;2022-12-18T07:05:32;-6.20;99.90
15013;DHT22;7603;49.432;11.418;2022-12-18T07:07:58;-6.10;99.90
15013;DHT22;7603;49.432;11.418;2022-12-18T07:10:24;-6.10;99.90
15013;DHT22;7603;49.432;11.418;2022-12-18T07:12:49;-6.00;99.90
15013;DHT22;7603;49.432;11.418;2022-12-18T07:15:15;-5.90;99.90
15013;DHT22;7603;49.432;11.418;2022-12-18T07:17:41;-5.90;99.90
15013;DHT22;7603;49.432;11.418;2022-12-18T07:20:07;-5.80;99.90
15013;DHT22;7603;49.432;11.418;2022-12-18T07:22:32;-5.80;99.90
15013;DHT22;7603;49.432;11.418;2022-12-18T07:24:58;-5.70;99.90
15013;DHT22;7603;49.432;11.418;2022-12-18T07:27:24;-5.60;99.90
15013;DHT22;7603;49.432;11.418;2022-12-18T07:29:49;-5.60;99.90
15013;DHT22;7603;49.432;11.418;2022-12-18T07:32:15;-5.50;99.90
15013;DHT22;7603;49.432;11.418;2022-12-18T07:34:41;-5.50;99.90
15013;DHT22;7603;49.432;11.418;2022-12-18T07:37:07;-5.40;99.90
15013;DHT22;7603;49.432;11.418;2022-12-18T07:39:32;-5.40;99.90
15013;DHT22;7603;49.432;11.418;2022-12-18T07:41:59;-5.30;99.90
15013;DHT22;7603;49.432;11.418;2022-12-18T07:44:43;-5.30;99.90
15013;DHT22;7603;49.432;11.418;2022-12-18T07:47:08;-5.20;99.90
15013;DHT22;7603;49.432;11.418;2022-12-18T07:49:34;-5.20;99.90
15013;DHT22;7603;49.432;11.418;2022-12-18T07:52:00;-5.10;99.90
15013;DHT22;7603;49.432;11.418;2022-12-18T07:54:27;-5.10;99.90
15013;DHT22;7603;49.432;11.418;2022-12-18T07:56:53;-5.00;99.90
15013;DHT22;7603;49.432;11.418;2022-12-18T07:59:20;-5.00;99.90
15013;DHT22;7603;49.432;11.418;2022-12-18T08:01:45;-4.90;99.90
15013;DHT22;7603;49.432;11.418;2022-12-18T08:04:11;-4.90;99.90
15013;DHT22;7603;49.432;11.418;2022-12-18T08:06:37;-4.80;99.90
15013;DHT22;7603;49.432;11.418;2022-12-18T08:09:02;-4.80;99.90
15013;DHT22;7603;49.432;11.418;2022-12-18T08:11:28;-4.70;99.90
15013;DHT22;7603;49.432;11.418;2022-12-18T08:13:55;-4.70;99.90
15013;DHT22;7603;49.432;11.418;2022-12-18T08:16:21;-4.70;99.90
15013;DHT22;7603;49.432;11.418;2022-12-18T08:18:47;-4.60;99.90
15013;DHT22;7603;49.432;11.418;2022-12-18T08:21:15;-4.60;99.90
15013;DHT22;7603;49.432;11.418;2022-12-18T08:23:42;-4.50;99.90
15013;DHT22;7603;49.432;11.418;2022-12-18T08:26:07;-4.50;99.90
15013;DHT22;7603;49.432;11.418;2022-12-18T08:28:34;-4.40;99.90
15013;DHT22;7603;49.432;11.418;2022-12-18T08:30:59;-4.30;99.90
15013;DHT22;7603;49.432;11.418;2022-12-18T08:33:25;-4.20;99.90
15013;DHT22;7603;49.432;11.418;2022-12-18T08:35:52;-4.10;99.90
15013;DHT22;7603;49.432;11.418;2022-12-18T08:38:17;-4.00;99.90
15013;DHT22;7603;49.432;11.418;2022-12-18T08:40:43;-3.90;99.90
15013;DHT22;7603;49.432;11.418;2022-12-18T08:43:10;-3.80;99.90
15013;DHT22;7603;49.432;11.418;2022-12-18T08:45:54;-3.80;99.90
15013;DHT22;7603;49.432;11.418;2022-12-18T08:48:20;-3.80;99.90
15013;DHT22;7603;49.432;11.418;2022-12-18T08:50:56;-3.70;99.90
15013;DHT22;7603;49.432;11.418;2022-12-18T08:53:25;-3.70;99.90
15013;DHT22;7603;49.432;11.418;2022-12-18T08:55:51;-3.70;99.90
15013;DHT22;7603;49.432;11.418;2022-12-18T08:58:17;-3.70;99.90
15013;DHT22;7603;49.432;11.418;2022-12-18T09:00:44;-3.60;99.90
15013;DHT22;7603;49.432;11.418;2022-12-18T09:03:18;-3.60;99.90
15013;DHT22;7603;49.432;11.418;2022-12-18T09:05:45;-3.50;99.90
15013;DHT22;7603;49.432;11.418;2022-12-18T09:08:11;-3.40;99.90
15013;DHT22;7603;49.432;11.418;2022-12-18T09:10:44;-3.30;99.90
15013;DHT22;7603;49.432;11.418;2022-12-18T09:13:11;-3.10;99.90
15013;DHT22;7603;49.432;11.418;2022-12-18T09:15:45;-3.00;99.90
15013;DHT22;7603;49.432;11.418;2022-12-18T09:18:13;-2.70;99.90
15013;DHT22;7603;49.432;11.418;2022-12-18T09:20:39;-2.50;99.90
15013;DHT22;7603;49.432;11.418;2022-12-18T09:23:05;-2.30;99.90
15013;DHT22;7603;49.432;11.418;2022-12-18T09:25:32;-2.10;99.90
15013;DHT22;7603;49.432;11.418;2022-12-18T09:27:59;-2.00;99.90
15013;DHT22;7603;49.432;11.418;2022-12-18T09:30:26;-1.90;99.90
15013;DHT22;7603;49.432;11.418;2022-12-18T09:32:55;-1.70;99.90
15013;DHT22;7603;49.432;11.418;2022-12-18T09:35:20;-1.70;99.90
15013;DHT22;7603;49.432;11.418;2022-12-18T09:37:46;-1.80;99.90
15013;DHT22;7603;49.432;11.418;2022-12-18T09:40:16;-1.80;99.90
15013;DHT22;7603;49.432;11.418;2022-12-18T09:42:47;-1.80;99.90
15013;DHT22;7603;49.432;11.418;2022-12-18T09:45:15;-1.40;99.90
15013;DHT22;7603;49.432;11.418;2022-12-18T09:47:42;-0.70;99.90
15013;DHT22;7603;49.432;11.418;2022-12-18T09:50:35;0.00;99.90
15013;DHT22;7603;49.432;11.418;2022-12-18T09:53:07;0.60;99.90
15013;DHT22;7603;49.432;11.418;2022-12-18T09:55:41;0.90;99.90
15013;DHT22;7603;49.432;11.418;2022-12-18T09:58:29;1.40;99.90
15013;DHT22;7603;49.432;11.418;2022-12-18T10:00:56;2.20;99.90
15013;DHT22;7603;49.432;11.418;2022-12-18T10:03:22;3.20;99.90
15013;DHT22;7603;49.432;11.418;2022-12-18T10:08:40;4.80;99.90
15013;DHT22;7603;49.432;11.418;2022-12-18T10:14:27;6.60;99.90
15013;DHT22;7603;49.432;11.418;2022-12-18T10:17:03;7.50;99.90
15013;DHT22;7603;49.432;11.418;2022-12-18T10:20:02;8.80;98.90
15013;DHT22;7603;49.432;11.418;2022-12-18T10:27:48;10.00;73.90
15013;DHT22;7603;49.432;11.418;2022-12-18T10:30:20;10.00;73.70
15013;DHT22;7603;49.432;11.418;2022-12-18T10:32:46;10.00;72.30
15013;DHT22;7603;49.432;11.418;2022-12-18T10:35:30;10.20;72.10
15013;DHT22;7603;49.432;11.418;2022-12-18T10:41:00;11.10;71.80
15013;DHT22;7603;49.432;11.418;2022-12-18T10:43:30;11.50;65.40
15013;DHT22;7603;49.432;11.418;2022-12-18T10:51:07;11.70;60.70
15013;DHT22;7603;49.432;11.418;2022-12-18T10:53:36;11.80;61.90
15013;DHT22;7603;49.432;11.418;2022-12-18T10:56:03;11.80;58.80
15013;DHT22;7603;49.432;11.418;2022-12-18T10:58:34;11.70;58.60
15013;DHT22;7603;49.432;11.418;2022-12-18T11:01:15;11.80;58.60
15013;DHT22;7603;49.432;11.418;2022-12-18T11:03:47;12.20;60.00
15013;DHT22;7603;49.432;11.418;2022-12-18T11:06:24;12.60;58.70
15013;DHT22;7603;49.432;11.418;2022-12-18T11:09:05;13.10;55.60
15013;DHT22;7603;49.432;11.418;2022-12-18T11:11:32;13.50;54.10
15013;DHT22;7603;49.432;11.418;2022-12-18T11:14:05;14.00;55.10
15013;DHT22;7603;49.432;11.418;2022-12-18T11:16:36;14.60;53.80
15013;DHT22;7603;49.432;11.418;2022-12-18T11:19:33;15.00;52.10
15013;DHT22;7603;49.432;11.418;2022-12-18T11:22:01;15.10;49.70
15013;DHT22;7603;49.432;11.418;2022-12-18T11:24:31;15.20;49.70
15013;DHT22;7603;49.432;11.418;2022-12-18T11:27:01;15.20;48.50
15013;DHT22;7603;49.432;11.418;2022-12-18T11:29:35;14.90;49.20
15013;DHT22;7603;49.432;11.418;2022-12-18T11:37:40;14.90;47.80
15013;DHT22;7603;49.432;11.418;2022-12-18T11:40:14;14.90;48.00
15013;DHT22;7603;49.432;11.418;2022-12-18T11:42:53;15.00;48.70
15013;DHT22;7603;49.432;11.418;2022-12-18T11:45:27;15.10;48.00
15013;DHT22;7603;49.432;11.418;2022-12-18T11:50:51;16.00;46.90
15013;DHT22;7603;49.432;11.418;2022-12-18T11:53:18;16.60;46.60
15013;DHT22;7603;49.432;11.418;2022-12-18T11:55:54;17.00;44.80
15013;DHT22;7603;49.432;11.418;2022-12-18T12:09:05;16.00;43.70
15013;DHT22;7603;49.432;11.418;2022-12-18T12:14:57;15.00;44.30
15013;DHT22;7603;49.432;11.418;2022-12-18T12:18:02;14.50;44.30
15013;DHT22;7603;49.432;11.418;2022-12-18T12:34:19;10.40;51.40
15013;DHT22;7603;49.432;11.418;2022-12-18T12:39:52;9.90;53.20
15013;DHT22;7603;49.432;11.418;2022-12-18T12:42:34;9.80;52.80
15013;DHT22;7603;49.432;11.418;2022-12-18T12:45:28;9.80;53.50
15013;DHT22;7603;49.432;11.418;2022-12-18T12:47:58;9.60;53.60
15013;DHT22;7603;49.432;11.418;2022-12-18T12:50:27;9.60;54.20
15013;DHT22;7603;49.432;11.418;2022-12-18T12:52:55;9.60;54.90
15013;DHT22;7603;49.432;11.418;2022-12-18T12:55:26;9.70;54.40
15013;DHT22;7603;49.432;11.418;2022-12-18T12:58:14;9.90;54.90
15013;DHT22;7603;49.432;11.418;2022-12-18T13:01:09;10.20;54.70
15013;DHT22;7603;49.432;11.418;2022-12-18T13:04:08;10.40;53.30
15013;DHT22;7603;49.432;11.418;2022-12-18T13:09:17;10.80;52.50
15013;DHT22;7603;49.432;11.418;2022-12-18T13:11:46;10.50;52.40
15013;DHT22;7603;49.432;11.418;2022-12-18T13:14:36;10.20;53.00
15013;DHT22;7603;49.432;11.418;2022-12-18T13:20:07;8.90;54.50
15013;DHT22;7603;49.432;11.418;2022-12-18T13:22:48;8.00;55.80
15013;DHT22;7603;49.432;11.418;2022-12-18T13:25:36;7.30;57.80
15013;DHT22;7603;49.432;11.418;2022-12-18T13:38:34;6.20;62.50
15013;DHT22;7603;49.432;11.418;2022-12-18T13:46:42;6.10;62.80
15013;DHT22;7603;49.432;11.418;2022-12-18T13:49:21;5.80;63.60
15013;DHT22;7603;49.432;11.418;2022-12-18T13:51:50;5.30;64.20
15013;DHT22;7603;49.432;11.418;2022-12-18T13:54:36;4.70;66.30
15013;DHT22;7603;49.432;11.418;2022-12-18T13:57:03;4.20;67.60
15013;DHT22;7603;49.432;11.418;2022-12-18T13:59:38;3.50;69.60
15013;DHT22;7603;49.432;11.418;2022-12-18T14:02:24;2.80;71.50
15013;DHT22;7603;49.432;11.418;2022-12-18T14:04:51;2.30;74.10
15013;DHT22;7603;49.432;11.418;2022-12-18T14:07:19;1.80;76.40
15013;DHT22;7603;49.432;11.418;2022-12-18T14:09:54;1.40;78.40
15013;DHT22;7603;49.432;11.418;2022-12-18T14:12:27;1.10;81.30
15013;DHT22;7603;49.432;11.418;2022-12-18T14:18:12;0.60;86.20
15013;DHT22;7603;49.432;11.418;2022-12-18T14:20:44;0.50;89.20
15013;DHT22;7603;49.432;11.418;2022-12-18T14:23:35;0.30;90.40
15013;DHT22;7603;49.432;11.418;2022-12-18T14:26:28;0.20;91.60
15013;DHT22;7603;49.432;11.418;2022-12-18T14:29:14;0.00;93.00
15013;DHT22;7603;49.432;11.418;2022-12-18T14:31:43;-0.30;93.90
15013;DHT22;7603;49.432;11.418;2022-12-18T14:34:18;-0.50;95.50
15013;DHT22;7603;49.432;11.418;2022-12-18T14:36:53;-0.70;96.60
15013;DHT22;7603;49.432;11.418;2022-12-18T14:39:21;-0.90;97.90
15013;DHT22;7603;49.432;11.418;2022-12-18T14:41:49;-1.00;98.90
15013;DHT22;7603;49.432;11.418;2022-12-18T14:44:15;-1.20;99.90
15013;DHT22;7603;49.432;11.418;2022-12-18T14:46:45;-1.30;99.90
15013;DHT22;7603;49.432;11.418;2022-12-18T14:49:19;-1.40;99.90
15013;DHT22;7603;49.432;11.418;2022-12-18T14:51:49;-1.50;99.90
15013;DHT22;7603;49.432;11.418;2022-12-18T14:54:18;-1.60;99.90
15013;DHT22;7603;49.432;11.418;2022-12-18T14:57:02;-1.70;99.90
15013;DHT22;7603;49.432;11.418;2022-12-18T14:59:29;-1.80;99.90
15013;DHT22;7603;49.432;11.418;2022-12-18T15:09:31;-2.40;99.90
15013;DHT22;7603;49.432;11.418;2022-12-18T15:11:58;-2.50;99.90
15013;DHT22;7603;49.432;11.418;2022-12-18T15:16:57;-2.90;99.90
15013;DHT22;7603;49.432;11.418;2022-12-18T15:19:35;-3.00;99.90
15013;DHT22;7603;49.432;11.418;2022-12-18T15:22:03;-3.20;99.90
15013;DHT22;7603;49.432;11.418;2022-12-18T15:24:31;-3.30;99.90
15013;DHT22;7603;49.432;11.418;2022-12-18T15:26:58;-3.40;99.90
15013;DHT22;7603;49.432;11.418;2022-12-18T15:29:26;-3.50;99.90
15013;DHT22;7603;49.432;11.418;2022-12-18T15:32:03;-3.60;99.90
15013;DHT22;7603;49.432;11.418;2022-12-18T15:34:29;-3.70;99.90
15013;DHT22;7603;49.432;11.418;2022-12-18T15:36:56;-3.80;99.90
15013;DHT22;7603;49.432;11.418;2022-12-18T15:39:21;-3.90;99.90
15013;DHT22;7603;49.432;11.418;2022-12-18T15:41:47;-3.90;99.90
15013;DHT22;7603;49.432;11.418;2022-12-18T15:44:31;-4.00;99.90
15013;DHT22;7603;49.432;11.418;2022-12-18T15:46:57;-4.10;99.90
15013;DHT22;7603;49.432;11.418;2022-12-18T15:49:23;-4.10;99.90
15013;DHT22;7603;49.432;11.418;2022-12-18T15:51:54;-4.20;99.90
15013;DHT22;7603;49.432;11.418;2022-12-18T15:54:22;-4.20;99.90
15013;DHT22;7603;49.432;11.418;2022-12-18T15:57:11;-4.20;99.90
15013;DHT22;7603;49.432;11.418;2022-12-18T15:59:49;-4.30;99.90
15013;DHT22;7603;49.432;11.418;2022-12-18T16:02:17;-4.30;99.90
15013;DHT22;7603;49.432;11.418;2022-12-18T16:04:43;-4.40;99.90
15013;DHT22;7603;49.432;11.418;2022-12-18T16:07:11;-4.40;99.90
15013;DHT22;7603;49.432;11.418;2022-12-18T16:09:38;-4.40;99.90
15013;DHT22;7603;49.432;11.418;2022-12-18T16:12:05;-4.40;99.90
15013;DHT22;7603;49.432;11.418;2022-12-18T16:14:32;-4.40;99.90
15013;DHT22;7603;49.432;11.418;2022-12-18T16:17:00;-4.40;99.90
15013;DHT22;7603;49.432;11.418;2022-12-18T16:19:27;-4.40;99.90
15013;DHT22;7603;49.432;11.418;2022-12-18T16:21:55;-4.40;99.90
15013;DHT22;7603;49.432;11.418;2022-12-18T16:24:26;-4.40;99.90
15013;DHT22;7603;49.432;11.418;2022-12-18T16:26:53;-4.40;99.90
15013;DHT22;7603;49.432;11.418;2022-12-18T16:29:20;-4.40;99.90
15013;DHT22;7603;49.432;11.418;2022-12-18T16:31:50;-4.40;99.90
15013;DHT22;7603;49.432;11.418;2022-12-18T16:34:27;-4.40;99.90
15013;DHT22;7603;49.432;11.418;2022-12-18T16:37:05;-4.50;99.90
15013;DHT22;7603;49.432;11.418;2022-12-18T16:39:34;-4.50;99.90
15013;DHT22;7603;49.432;11.418;2022-12-18T16:42:01;-4.50;99.90
15013;DHT22;7603;49.432;11.418;2022-12-18T16:44:27;-4.60;99.90
15013;DHT22;7603;49.432;11.418;2022-12-18T16:46:53;-4.60;99.90
15013;DHT22;7603;49.432;11.418;2022-12-18T16:49:18;-4.70;99.90
15013;DHT22;7603;49.432;11.418;2022-12-18T16:51:45;-4.70;99.90
15013;DHT22;7603;49.432;11.418;2022-12-18T16:54:12;-4.80;99.90
15013;DHT22;7603;49.432;11.418;2022-12-18T16:56:38;-4.80;99.90
15013;DHT22;7603;49.432;11.418;2022-12-18T16:59:04;-4.80;99.90
15013;DHT22;7603;49.432;11.418;2022-12-18T17:01:31;-4.80;99.90
15013;DHT22;7603;49.432;11.418;2022-12-18T17:03:59;-4.80;99.90
15013;DHT22;7603;49.432;11.418;2022-12-18T17:06:26;-4.80;99.90
15013;DHT22;7603;49.432;11.418;2022-12-18T17:08:59;-4.80;99.90
15013;DHT22;7603;49.432;11.418;2022-12-18T17:11:27;-4.80;99.90
15013;DHT22;7603;49.432;11.418;2022-12-18T17:13:53;-4.80;99.90
15013;DHT22;7603;49.432;11.418;2022-12-18T17:16:19;-4.80;99.90
15013;DHT22;7603;49.432;11.418;2022-12-18T17:18:45;-4.80;99.90
15013;DHT22;7603;49.432;11.418;2022-12-18T17:21:11;-4.80;99.90
15013;DHT22;7603;49.432;11.418;2022-12-18T17:23:39;-4.80;99.90
15013;DHT22;7603;49.432;11.418;2022-12-18T17:26:05;-4.80;99.90
15013;DHT22;7603;49.432;11.418;2022-12-18T17:28:33;-4.80;99.90
15013;DHT22;7603;49.432;11.418;2022-12-18T17:30:58;-4.80;99.90
15013;DHT22;7603;49.432;11.418;2022-12-18T17:33:25;-4.80;99.90
15013;DHT22;7603;49.432;11.418;2022-12-18T17:35:51;-4.80;99.90
15013;DHT22;7603;49.432;11.418;2022-12-18T17:38:16;-4.80;99.90
15013;DHT22;7603;49.432;11.418;2022-12-18T17:40:42;-4.80;99.90
15013;DHT22;7603;49.432;11.418;2022-12-18T17:43:09;-4.80;99.90